Cheraw, SC

5:59 AM EDT on September 22, 2014 (GMT -0400)
KSCCHERA3 | Change Station
CLOSE
Current Station
Personal Weather Station
Location: Cheraw, SC
Elevation: 110 ft
Nearby Weather Stations

Elev 110 ft 34.70 °N, 79.90 °W | Updated 4 minutes ago

Overcast
Overcast
71.1 °F
Feels Like 71.1 °F
N
0.0
Wind Variable Wind from NNW
Gusts 0.0 mph

Today
High -- | Low -- °F
--% Chance of Precip.
Yesterday
High -- | Low -- °F
Precip. -- in
7:07 AM 7:16 PM
Waning Crescent, 3% visible
Pressure 29.94 in
Visibility 10.0 miles
Clouds Mostly Cloudy 6000 ft
Mostly Cloudy 9500 ft
Overcast 12000 ft
Dew Point 67 °F
Humidity 87%
Rainfall 0.00 in
Snow Depth Not available.
UV 0 out of 12
Pollen 8.40 out of 12
Ozone Good
PM2.5 Moderate
Flu Activity Not available.
METAR KBBP 220955Z AUTO 00000KT 10SM BKN060 BKN095 OVC120 22/21 A2994 RMK AO2

More Conditions Fewer Conditions

Pressure 29.94 in
Visibility 10.0 miles
Clouds Mostly Cloudy 6000 ft
Mostly Cloudy 9500 ft
Overcast 12000 ft
Dew Point 67 °F
Humidity 87%
Rainfall 0.00 in
Snow Depth Not available.
UV 0 out of 12
Pollen 8.40 out of 12
Ozone Good
PM2.5 Moderate
Flu Activity Not available.
METAR KBBP 220955Z AUTO 00000KT 10SM BKN060 BKN095 OVC120 22/21 A2994 RMK AO2

More Conditions Fewer Conditions

10-Day Weather Forecast

Almanac

Astronomy

Sep. 22, 2014 Rise Set
Actual Time 7:07 AM EDT 7:16 PM EDT
Civil Twilight 6:42 AM EDT 7:41 PM EDT
Nautical Twilight 6:13 AM EDT 8:11 PM EDT
Astronomical Twilight 5:43 AM EDT 8:40 PM EDT
Moon 5:37 AM EDT 6:21 PM EDT
Length of Visible Light 12h 59m
Length of Day
12h 08m
Tomorrow will be 2m 9s shorter.
Waning Crescent, 3% of the Moon is Illuminated
Today
Waning Crescent
Sep 24
New
Oct 1
First Quarter
Oct 8
Full
Oct 15
Last Quarter

Today's Extremes

State Highs State Lows

Community

WunderPhotos

Upload Photos

1,755,400 photos uploaded!

Nearby

Air Quality

  Air Quality AQ Index Pollutant
Yesterday Good
PM2.5
Yesterday Good
OZONE
Current Moderate
PM2.5
Current Good
OZONE
Monday Good
OZONE

Snow Depth

Station Depth Elevation
No new snow has been reported.

Earthquake Activity

City Distance Mag. Time & Date
New Ellenton, South Carolina 133 miles 2.6 4:38 PM EDT
2014-09-19
Minimum magnitude displayed is 2.5.

Coastal Water Temperatures

Place Temperature
No Stations Reporting

Nearby Weather Stations